sensor_id;sensor_type;location;lat;lon;timestamp;temperature;humidity
71155;DHT22;59375;53.216;5.728;2022-12-20T00:01:25;9.20;99.90
71155;DHT22;59375;53.216;5.728;2022-12-20T00:03:51;9.30;99.90
71155;DHT22;59375;53.216;5.728;2022-12-20T00:06:17;9.30;99.90
71155;DHT22;59375;53.216;5.728;2022-12-20T00:08:43;9.20;99.90
71155;DHT22;59375;53.216;5.728;2022-12-20T00:11:09;9.20;99.90
71155;DHT22;59375;53.216;5.728;2022-12-20T00:13:35;9.30;99.90
71155;DHT22;59375;53.216;5.728;2022-12-20T00:16:07;9.30;99.90
71155;DHT22;59375;53.216;5.728;2022-12-20T00:18:34;9.30;99.90
71155;DHT22;59375;53.216;5.728;2022-12-20T00:21:00;9.30;99.90
71155;DHT22;59375;53.216;5.728;2022-12-20T00:23:26;9.30;99.90
71155;DHT22;59375;53.216;5.728;2022-12-20T00:25:59;9.30;99.90
71155;DHT22;59375;53.216;5.728;2022-12-20T00:28:24;9.40;99.90
71155;DHT22;59375;53.216;5.728;2022-12-20T00:30:53;9.30;99.90
71155;DHT22;59375;53.216;5.728;2022-12-20T00:33:19;9.40;99.90
71155;DHT22;59375;53.216;5.728;2022-12-20T00:35:44;9.40;99.90
71155;DHT22;59375;53.216;5.728;2022-12-20T00:38:09;9.30;99.90
71155;DHT22;59375;53.216;5.728;2022-12-20T00:40:35;9.40;99.90
71155;DHT22;59375;53.216;5.728;2022-12-20T00:43:00;9.40;99.90
71155;DHT22;59375;53.216;5.728;2022-12-20T00:45:26;9.40;99.90
71155;DHT22;59375;53.216;5.728;2022-12-20T00:47:51;9.40;99.90
71155;DHT22;59375;53.216;5.728;2022-12-20T00:50:17;9.50;99.90
71155;DHT22;59375;53.216;5.728;2022-12-20T00:52:42;9.50;99.90
71155;DHT22;59375;53.216;5.728;2022-12-20T00:55:08;9.40;99.90
71155;DHT22;59375;53.216;5.728;2022-12-20T00:57:33;9.50;99.90
71155;DHT22;59375;53.216;5.728;2022-12-20T00:59:58;9.50;99.90
71155;DHT22;59375;53.216;5.728;2022-12-20T01:02:24;9.50;99.90
71155;DHT22;59375;53.216;5.728;2022-12-20T01:04:49;9.50;99.90
71155;DHT22;59375;53.216;5.728;2022-12-20T01:07:15;9.40;99.90
71155;DHT22;59375;53.216;5.728;2022-12-20T01:09:40;9.50;99.90
71155;DHT22;59375;53.216;5.728;2022-12-20T01:12:06;9.50;99.90
71155;DHT22;59375;53.216;5.728;2022-12-20T01:14:31;9.40;99.90
71155;DHT22;59375;53.216;5.728;2022-12-20T01:16:57;9.40;99.90
71155;DHT22;59375;53.216;5.728;2022-12-20T01:19:22;9.40;99.90
71155;DHT22;59375;53.216;5.728;2022-12-20T01:21:48;9.50;99.90
71155;DHT22;59375;53.216;5.728;2022-12-20T01:24:14;9.40;99.90
71155;DHT22;59375;53.216;5.728;2022-12-20T01:26:40;9.50;99.90
71155;DHT22;59375;53.216;5.728;2022-12-20T01:29:05;9.40;99.90
71155;DHT22;59375;53.216;5.728;2022-12-20T01:31:31;9.40;99.90
71155;DHT22;59375;53.216;5.728;2022-12-20T01:33:56;9.40;99.90
71155;DHT22;59375;53.216;5.728;2022-12-20T01:36:23;9.40;99.90
71155;DHT22;59375;53.216;5.728;2022-12-20T01:38:49;9.30;99.90
71155;DHT22;59375;53.216;5.728;2022-12-20T01:41:18;9.30;99.90
71155;DHT22;59375;53.216;5.728;2022-12-20T01:43:46;9.30;99.90
71155;DHT22;59375;53.216;5.728;2022-12-20T01:46:11;9.40;99.90
71155;DHT22;59375;53.216;5.728;2022-12-20T01:48:37;9.40;99.90
71155;DHT22;59375;53.216;5.728;2022-12-20T01:51:03;9.40;99.90
71155;DHT22;59375;53.216;5.728;2022-12-20T01:53:29;9.40;99.90
71155;DHT22;59375;53.216;5.728;2022-12-20T01:55:54;9.40;99.90
71155;DHT22;59375;53.216;5.728;2022-12-20T01:58:20;9.30;99.90
71155;DHT22;59375;53.216;5.728;2022-12-20T02:00:45;9.30;99.90
71155;DHT22;59375;53.216;5.728;2022-12-20T02:03:12;9.30;99.90
71155;DHT22;59375;53.216;5.728;2022-12-20T02:05:39;9.30;99.90
71155;DHT22;59375;53.216;5.728;2022-12-20T02:08:05;9.30;99.90
71155;DHT22;59375;53.216;5.728;2022-12-20T02:10:57;9.30;99.90
71155;DHT22;59375;53.216;5.728;2022-12-20T02:13:31;9.40;99.90
71155;DHT22;59375;53.216;5.728;2022-12-20T02:16:00;9.30;99.90
71155;DHT22;59375;53.216;5.728;2022-12-20T02:21:04;9.30;99.90
71155;DHT22;59375;53.216;5.728;2022-12-20T02:23:46;9.30;99.90
71155;DHT22;59375;53.216;5.728;2022-12-20T02:26:29;9.30;99.90
71155;DHT22;59375;53.216;5.728;2022-12-20T02:31:57;9.20;99.90
71155;DHT22;59375;53.216;5.728;2022-12-20T02:34:24;9.20;99.90
71155;DHT22;59375;53.216;5.728;2022-12-20T02:36:50;9.10;99.90
71155;DHT22;59375;53.216;5.728;2022-12-20T02:39:16;9.10;99.90
71155;DHT22;59375;53.216;5.728;2022-12-20T02:41:43;9.00;99.90
71155;DHT22;59375;53.216;5.728;2022-12-20T02:44:11;9.00;99.90
71155;DHT22;59375;53.216;5.728;2022-12-20T02:46:57;8.90;99.90
71155;DHT22;59375;53.216;5.728;2022-12-20T02:49:26;8.90;99.90
71155;DHT22;59375;53.216;5.728;2022-12-20T02:51:53;8.90;99.90
71155;DHT22;59375;53.216;5.728;2022-12-20T02:54:20;8.90;99.90
71155;DHT22;59375;53.216;5.728;2022-12-20T02:56:49;8.90;99.90
71155;DHT22;59375;53.216;5.728;2022-12-20T02:59:20;8.90;99.90
71155;DHT22;59375;53.216;5.728;2022-12-20T03:01:47;8.90;99.90
71155;DHT22;59375;53.216;5.728;2022-12-20T03:04:14;8.90;99.90
71155;DHT22;59375;53.216;5.728;2022-12-20T03:06:54;8.90;99.90
71155;DHT22;59375;53.216;5.728;2022-12-20T03:09:19;8.90;99.90
71155;DHT22;59375;53.216;5.728;2022-12-20T03:11:45;8.80;99.90
71155;DHT22;59375;53.216;5.728;2022-12-20T03:14:10;8.90;99.90
71155;DHT22;59375;53.216;5.728;2022-12-20T03:16:36;8.90;99.90
71155;DHT22;59375;53.216;5.728;2022-12-20T03:19:01;8.90;99.90
71155;DHT22;59375;53.216;5.728;2022-12-20T03:21:26;8.90;99.90
71155;DHT22;59375;53.216;5.728;2022-12-20T03:23:52;8.90;99.90
71155;DHT22;59375;53.216;5.728;2022-12-20T03:26:17;8.90;99.90
71155;DHT22;59375;53.216;5.728;2022-12-20T03:28:43;8.90;99.90
71155;DHT22;59375;53.216;5.728;2022-12-20T03:31:08;9.00;99.90
71155;DHT22;59375;53.216;5.728;2022-12-20T03:33:34;8.90;99.90
71155;DHT22;59375;53.216;5.728;2022-12-20T03:35:59;9.00;99.90
71155;DHT22;59375;53.216;5.728;2022-12-20T03:38:24;9.00;99.90
71155;DHT22;59375;53.216;5.728;2022-12-20T03:40:50;9.10;99.90
71155;DHT22;59375;53.216;5.728;2022-12-20T03:43:15;9.10;99.90
71155;DHT22;59375;53.216;5.728;2022-12-20T03:45:41;9.10;99.90
71155;DHT22;59375;53.216;5.728;2022-12-20T03:48:06;9.20;99.90
71155;DHT22;59375;53.216;5.728;2022-12-20T03:50:32;9.20;99.90
71155;DHT22;59375;53.216;5.728;2022-12-20T03:52:58;9.20;99.90
71155;DHT22;59375;53.216;5.728;2022-12-20T03:55:24;9.20;99.90
71155;DHT22;59375;53.216;5.728;2022-12-20T03:57:49;9.20;99.90
71155;DHT22;59375;53.216;5.728;2022-12-20T04:00:15;9.30;99.90
71155;DHT22;59375;53.216;5.728;2022-12-20T04:02:40;9.20;99.90
71155;DHT22;59375;53.216;5.728;2022-12-20T04:05:06;9.30;99.90
71155;DHT22;59375;53.216;5.728;2022-12-20T04:07:31;9.30;99.90
71155;DHT22;59375;53.216;5.728;2022-12-20T04:09:57;9.30;99.90
71155;DHT22;59375;53.216;5.728;2022-12-20T04:12:22;9.40;99.90
71155;DHT22;59375;53.216;5.728;2022-12-20T04:14:47;9.40;99.90
71155;DHT22;59375;53.216;5.728;2022-12-20T04:17:13;9.40;99.90
71155;DHT22;59375;53.216;5.728;2022-12-20T04:19:38;9.40;99.90
71155;DHT22;59375;53.216;5.728;2022-12-20T04:22:04;9.40;99.90
71155;DHT22;59375;53.216;5.728;2022-12-20T04:24:29;9.40;99.90
71155;DHT22;59375;53.216;5.728;2022-12-20T04:26:55;9.50;99.90
71155;DHT22;59375;53.216;5.728;2022-12-20T04:29:20;9.60;99.90
71155;DHT22;59375;53.216;5.728;2022-12-20T04:31:46;9.50;99.90
71155;DHT22;59375;53.216;5.728;2022-12-20T04:34:11;9.50;99.90
71155;DHT22;59375;53.216;5.728;2022-12-20T04:36:36;9.60;99.90
71155;DHT22;59375;53.216;5.728;2022-12-20T04:39:02;9.50;99.90
71155;DHT22;59375;53.216;5.728;2022-12-20T04:41:27;9.60;99.90
71155;DHT22;59375;53.216;5.728;2022-12-20T04:43:54;9.50;99.90
71155;DHT22;59375;53.216;5.728;2022-12-20T04:46:21;9.60;99.90
71155;DHT22;59375;53.216;5.728;2022-12-20T04:48:46;9.60;99.90
71155;DHT22;59375;53.216;5.728;2022-12-20T04:51:12;9.60;99.90
71155;DHT22;59375;53.216;5.728;2022-12-20T04:53:37;9.60;99.90
71155;DHT22;59375;53.216;5.728;2022-12-20T04:56:20;9.60;99.90
71155;DHT22;59375;53.216;5.728;2022-12-20T04:58:46;9.60;99.90
71155;DHT22;59375;53.216;5.728;2022-12-20T05:01:12;9.70;99.90
71155;DHT22;59375;53.216;5.728;2022-12-20T05:03:37;9.70;99.90
71155;DHT22;59375;53.216;5.728;2022-12-20T05:06:03;9.70;99.90
71155;DHT22;59375;53.216;5.728;2022-12-20T05:08:29;9.80;99.90
71155;DHT22;59375;53.216;5.728;2022-12-20T05:10:54;9.80;99.90
71155;DHT22;59375;53.216;5.728;2022-12-20T05:13:20;9.80;99.90
71155;DHT22;59375;53.216;5.728;2022-12-20T05:15:49;9.80;99.90
71155;DHT22;59375;53.216;5.728;2022-12-20T05:18:15;9.80;99.90
71155;DHT22;59375;53.216;5.728;2022-12-20T05:20:40;9.80;99.90
71155;DHT22;59375;53.216;5.728;2022-12-20T05:23:06;9.90;99.90
71155;DHT22;59375;53.216;5.728;2022-12-20T05:25:50;9.80;99.90
71155;DHT22;59375;53.216;5.728;2022-12-20T05:28:34;9.90;99.90
71155;DHT22;59375;53.216;5.728;2022-12-20T05:30:59;9.90;99.90
71155;DHT22;59375;53.216;5.728;2022-12-20T05:33:25;9.90;99.90
71155;DHT22;59375;53.216;5.728;2022-12-20T05:35:51;9.90;99.90
71155;DHT22;59375;53.216;5.728;2022-12-20T05:38:17;9.90;99.90
71155;DHT22;59375;53.216;5.728;2022-12-20T05:40:42;9.90;99.90
71155;DHT22;59375;53.216;5.728;2022-12-20T05:43:08;9.90;99.90
71155;DHT22;59375;53.216;5.728;2022-12-20T05:45:34;10.00;99.90
71155;DHT22;59375;53.216;5.728;2022-12-20T05:47:59;9.90;99.90
71155;DHT22;59375;53.216;5.728;2022-12-20T05:50:25;10.00;99.90
71155;DHT22;59375;53.216;5.728;2022-12-20T05:52:50;10.00;99.90
71155;DHT22;59375;53.216;5.728;2022-12-20T05:55:16;10.00;99.90
71155;DHT22;59375;53.216;5.728;2022-12-20T05:57:41;10.00;99.90
71155;DHT22;59375;53.216;5.728;2022-12-20T06:00:07;10.00;99.90
71155;DHT22;59375;53.216;5.728;2022-12-20T06:02:33;9.90;99.90
71155;DHT22;59375;53.216;5.728;2022-12-20T06:04:58;10.00;99.90
71155;DHT22;59375;53.216;5.728;2022-12-20T06:07:24;10.00;99.90
71155;DHT22;59375;53.216;5.728;2022-12-20T06:09:49;10.00;99.90
71155;DHT22;59375;53.216;5.728;2022-12-20T06:12:15;10.00;99.90
71155;DHT22;59375;53.216;5.728;2022-12-20T06:14:40;10.00;99.90
71155;DHT22;59375;53.216;5.728;2022-12-20T06:17:06;10.00;99.90
71155;DHT22;59375;53.216;5.728;2022-12-20T06:19:31;10.00;99.90
71155;DHT22;59375;53.216;5.728;2022-12-20T06:21:57;10.00;99.90
71155;DHT22;59375;53.216;5.728;2022-12-20T06:24:22;10.00;99.90
71155;DHT22;59375;53.216;5.728;2022-12-20T06:26:50;10.00;99.90
71155;DHT22;59375;53.216;5.728;2022-12-20T06:29:15;10.10;99.90
71155;DHT22;59375;53.216;5.728;2022-12-20T06:31:42;9.90;99.90
71155;DHT22;59375;53.216;5.728;2022-12-20T06:34:08;10.00;99.90
71155;DHT22;59375;53.216;5.728;2022-12-20T06:36:34;10.00;99.90
71155;DHT22;59375;53.216;5.728;2022-12-20T06:38:59;10.00;99.90
71155;DHT22;59375;53.216;5.728;2022-12-20T06:41:25;10.00;99.90
71155;DHT22;59375;53.216;5.728;2022-12-20T06:43:50;10.00;99.90
71155;DHT22;59375;53.216;5.728;2022-12-20T06:46:15;9.90;99.90
71155;DHT22;59375;53.216;5.728;2022-12-20T06:48:41;9.90;99.90
71155;DHT22;59375;53.216;5.728;2022-12-20T06:51:06;9.90;99.90
71155;DHT22;59375;53.216;5.728;2022-12-20T06:53:32;9.90;99.90
71155;DHT22;59375;53.216;5.728;2022-12-20T06:55:57;9.90;99.90
71155;DHT22;59375;53.216;5.728;2022-12-20T06:58:23;9.80;99.90
71155;DHT22;59375;53.216;5.728;2022-12-20T07:00:48;9.80;99.90
71155;DHT22;59375;53.216;5.728;2022-12-20T07:03:14;9.80;99.90
71155;DHT22;59375;53.216;5.728;2022-12-20T07:05:40;9.80;99.90
71155;DHT22;59375;53.216;5.728;2022-12-20T07:08:05;9.80;99.90
71155;DHT22;59375;53.216;5.728;2022-12-20T07:10:34;9.80;99.90
71155;DHT22;59375;53.216;5.728;2022-12-20T07:13:00;9.70;99.90
71155;DHT22;59375;53.216;5.728;2022-12-20T07:15:25;9.70;99.90
71155;DHT22;59375;53.216;5.728;2022-12-20T07:17:51;9.70;99.90
71155;DHT22;59375;53.216;5.728;2022-12-20T07:20:17;9.70;99.90
71155;DHT22;59375;53.216;5.728;2022-12-20T07:22:42;9.70;99.90
71155;DHT22;59375;53.216;5.728;2022-12-20T07:25:08;9.70;99.90
71155;DHT22;59375;53.216;5.728;2022-12-20T07:27:34;9.70;99.90
71155;DHT22;59375;53.216;5.728;2022-12-20T07:29:59;9.70;99.90
71155;DHT22;59375;53.216;5.728;2022-12-20T07:32:25;9.70;99.90
71155;DHT22;59375;53.216;5.728;2022-12-20T07:34:50;9.70;99.90
71155;DHT22;59375;53.216;5.728;2022-12-20T07:37:16;9.80;99.90
71155;DHT22;59375;53.216;5.728;2022-12-20T07:39:41;9.70;99.90
71155;DHT22;59375;53.216;5.728;2022-12-20T07:42:07;9.80;99.90
71155;DHT22;59375;53.216;5.728;2022-12-20T07:44:33;9.80;99.90
71155;DHT22;59375;53.216;5.728;2022-12-20T07:46:59;9.80;99.90
71155;DHT22;59375;53.216;5.728;2022-12-20T07:49:24;9.90;99.90
71155;DHT22;59375;53.216;5.728;2022-12-20T07:51:51;9.90;99.90
71155;DHT22;59375;53.216;5.728;2022-12-20T07:54:19;9.90;99.90
71155;DHT22;59375;53.216;5.728;2022-12-20T07:56:47;9.90;99.90
71155;DHT22;59375;53.216;5.728;2022-12-20T07:59:15;9.90;99.90
71155;DHT22;59375;53.216;5.728;2022-12-20T08:01:44;9.90;99.90
71155;DHT22;59375;53.216;5.728;2022-12-20T08:04:12;9.90;99.90
71155;DHT22;59375;53.216;5.728;2022-12-20T08:06:38;9.90;99.90
71155;DHT22;59375;53.216;5.728;2022-12-20T08:09:05;9.90;99.90
71155;DHT22;59375;53.216;5.728;2022-12-20T08:11:31;10.00;99.90
71155;DHT22;59375;53.216;5.728;2022-12-20T08:13:58;10.00;99.90
71155;DHT22;59375;53.216;5.728;2022-12-20T08:16:23;10.00;99.90
71155;DHT22;59375;53.216;5.728;2022-12-20T08:18:49;10.00;99.90
71155;DHT22;59375;53.216;5.728;2022-12-20T08:21:14;10.00;99.90
71155;DHT22;59375;53.216;5.728;2022-12-20T08:23:40;10.00;99.90
71155;DHT22;59375;53.216;5.728;2022-12-20T08:26:05;10.00;99.90
71155;DHT22;59375;53.216;5.728;2022-12-20T08:28:31;10.00;99.90
71155;DHT22;59375;53.216;5.728;2022-12-20T08:31:04;10.00;99.90
71155;DHT22;59375;53.216;5.728;2022-12-20T08:33:30;10.10;99.90
71155;DHT22;59375;53.216;5.728;2022-12-20T08:35:59;10.10;99.90
71155;DHT22;59375;53.216;5.728;2022-12-20T08:38:27;10.00;99.90
71155;DHT22;59375;53.216;5.728;2022-12-20T08:40:52;10.10;99.90
71155;DHT22;59375;53.216;5.728;2022-12-20T08:43:18;10.10;99.90
71155;DHT22;59375;53.216;5.728;2022-12-20T08:45:43;10.20;99.90
71155;DHT22;59375;53.216;5.728;2022-12-20T08:48:09;10.20;99.90
71155;DHT22;59375;53.216;5.728;2022-12-20T08:50:34;10.20;99.90
71155;DHT22;59375;53.216;5.728;2022-12-20T08:53:00;10.30;99.90
71155;DHT22;59375;53.216;5.728;2022-12-20T08:55:26;10.30;99.90
71155;DHT22;59375;53.216;5.728;2022-12-20T08:57:51;10.30;99.90
71155;DHT22;59375;53.216;5.728;2022-12-20T09:00:16;10.40;99.90
71155;DHT22;59375;53.216;5.728;2022-12-20T09:02:42;10.40;99.90
71155;DHT22;59375;53.216;5.728;2022-12-20T09:05:08;10.40;99.90
71155;DHT22;59375;53.216;5.728;2022-12-20T09:07:33;10.40;99.90
71155;DHT22;59375;53.216;5.728;2022-12-20T09:09:59;10.30;99.90
71155;DHT22;59375;53.216;5.728;2022-12-20T09:12:24;10.40;99.90
71155;DHT22;59375;53.216;5.728;2022-12-20T09:14:50;10.40;99.90
71155;DHT22;59375;53.216;5.728;2022-12-20T09:17:15;10.40;99.90
71155;DHT22;59375;53.216;5.728;2022-12-20T09:19:41;10.50;99.90
71155;DHT22;59375;53.216;5.728;2022-12-20T09:22:06;10.50;99.90
71155;DHT22;59375;53.216;5.728;2022-12-20T09:24:32;10.50;99.90
71155;DHT22;59375;53.216;5.728;2022-12-20T09:26:58;10.50;99.90
71155;DHT22;59375;53.216;5.728;2022-12-20T09:29:24;10.50;99.90
71155;DHT22;59375;53.216;5.728;2022-12-20T09:31:49;10.50;99.90
71155;DHT22;59375;53.216;5.728;2022-12-20T09:34:14;10.60;99.90
71155;DHT22;59375;53.216;5.728;2022-12-20T09:36:40;10.50;99.90
71155;DHT22;59375;53.216;5.728;2022-12-20T09:39:06;10.50;99.90
71155;DHT22;59375;53.216;5.728;2022-12-20T09:41:32;10.60;99.90
71155;DHT22;59375;53.216;5.728;2022-12-20T09:43:59;10.60;99.90
71155;DHT22;59375;53.216;5.728;2022-12-20T09:46:25;10.60;99.90
71155;DHT22;59375;53.216;5.728;2022-12-20T09:48:51;10.60;99.90
71155;DHT22;59375;53.216;5.728;2022-12-20T09:51:33;10.60;99.90
71155;DHT22;59375;53.216;5.728;2022-12-20T10:01:31;10.60;99.90
71155;DHT22;59375;53.216;5.728;2022-12-20T10:03:57;10.50;99.90
71155;DHT22;59375;53.216;5.728;2022-12-20T10:08:50;10.50;99.90
71155;DHT22;59375;53.216;5.728;2022-12-20T10:11:25;10.40;99.90
71155;DHT22;59375;53.216;5.728;2022-12-20T10:14:03;10.40;99.90
71155;DHT22;59375;53.216;5.728;2022-12-20T10:16:43;10.40;99.90
71155;DHT22;59375;53.216;5.728;2022-12-20T10:22:16;10.40;99.90
71155;DHT22;59375;53.216;5.728;2022-12-20T10:36:31;10.30;99.90
71155;DHT22;59375;53.216;5.728;2022-12-20T10:38:57;10.40;99.90
71155;DHT22;59375;53.216;5.728;2022-12-20T10:41:26;10.40;99.90
71155;DHT22;59375;53.216;5.728;2022-12-20T10:46:17;10.40;99.90
71155;DHT22;59375;53.216;5.728;2022-12-20T10:48:44;10.40;99.90
71155;DHT22;59375;53.216;5.728;2022-12-20T10:53:58;10.40;99.90
71155;DHT22;59375;53.216;5.728;2022-12-20T11:01:23;10.30;99.90
71155;DHT22;59375;53.216;5.728;2022-12-20T11:06:15;10.30;99.90
71155;DHT22;59375;53.216;5.728;2022-12-20T11:08:41;10.20;99.90
71155;DHT22;59375;53.216;5.728;2022-12-20T11:11:10;10.20;99.90
71155;DHT22;59375;53.216;5.728;2022-12-20T11:13:37;10.20;99.90
71155;DHT22;59375;53.216;5.728;2022-12-20T11:16:02;10.20;99.90
71155;DHT22;59375;53.216;5.728;2022-12-20T11:23:40;10.10;99.90
71155;DHT22;59375;53.216;5.728;2022-12-20T11:32:00;10.10;99.90
71155;DHT22;59375;53.216;5.728;2022-12-20T11:41:44;9.90;99.90
71155;DHT22;59375;53.216;5.728;2022-12-20T11:52:20;9.80;99.90
71155;DHT22;59375;53.216;5.728;2022-12-20T11:57:47;9.80;99.90
71155;DHT22;59375;53.216;5.728;2022-12-20T12:00:23;9.80;99.90
71155;DHT22;59375;53.216;5.728;2022-12-20T12:02:52;9.80;99.90
71155;DHT22;59375;53.216;5.728;2022-12-20T12:05:21;9.80;99.90
71155;DHT22;59375;53.216;5.728;2022-12-20T12:07:50;9.80;99.90
71155;DHT22;59375;53.216;5.728;2022-12-20T12:10:22;9.80;99.90
71155;DHT22;59375;53.216;5.728;2022-12-20T12:15:33;9.80;99.90
71155;DHT22;59375;53.216;5.728;2022-12-20T12:18:06;9.70;99.90
71155;DHT22;59375;53.216;5.728;2022-12-20T12:23:16;9.70;99.90
71155;DHT22;59375;53.216;5.728;2022-12-20T12:25:43;9.70;99.90
71155;DHT22;59375;53.216;5.728;2022-12-20T12:28:11;9.70;99.90
71155;DHT22;59375;53.216;5.728;2022-12-20T12:30:40;9.70;99.90
71155;DHT22;59375;53.216;5.728;2022-12-20T12:33:10;9.70;99.90
71155;DHT22;59375;53.216;5.728;2022-12-20T12:35:52;9.70;99.90
71155;DHT22;59375;53.216;5.728;2022-12-20T12:40:55;9.70;99.90
71155;DHT22;59375;53.216;5.728;2022-12-20T12:45:54;9.70;99.90
71155;DHT22;59375;53.216;5.728;2022-12-20T12:48:23;9.70;99.90
71155;DHT22;59375;53.216;5.728;2022-12-20T12:50:52;9.70;99.90
71155;DHT22;59375;53.216;5.728;2022-12-20T12:55:44;9.70;99.90
71155;DHT22;59375;53.216;5.728;2022-12-20T12:58:28;9.70;99.90
71155;DHT22;59375;53.216;5.728;2022-12-20T13:01:02;9.60;99.90
71155;DHT22;59375;53.216;5.728;2022-12-20T13:08:46;9.60;99.90
71155;DHT22;59375;53.216;5.728;2022-12-20T13:11:14;9.60;99.90
71155;DHT22;59375;53.216;5.728;2022-12-20T13:14:09;9.60;99.90
71155;DHT22;59375;53.216;5.728;2022-12-20T13:16:35;9.60;99.90
71155;DHT22;59375;53.216;5.728;2022-12-20T13:19:10;9.60;99.90
71155;DHT22;59375;53.216;5.728;2022-12-20T13:21:36;9.60;99.90
71155;DHT22;59375;53.216;5.728;2022-12-20T13:26:50;9.50;99.90
71155;DHT22;59375;53.216;5.728;2022-12-20T13:29:25;9.50;99.90
71155;DHT22;59375;53.216;5.728;2022-12-20T13:31:51;9.50;99.90
71155;DHT22;59375;53.216;5.728;2022-12-20T13:37:01;9.50;99.90
71155;DHT22;59375;53.216;5.728;2022-12-20T13:44:39;9.40;99.90
71155;DHT22;59375;53.216;5.728;2022-12-20T13:47:18;9.40;99.90
71155;DHT22;59375;53.216;5.728;2022-12-20T13:49:47;9.40;99.90
71155;DHT22;59375;53.216;5.728;2022-12-20T13:52:19;9.40;99.90
71155;DHT22;59375;53.216;5.728;2022-12-20T13:54:49;9.40;99.90
71155;DHT22;59375;53.216;5.728;2022-12-20T13:57:17;9.40;99.90
71155;DHT22;59375;53.216;5.728;2022-12-20T13:59:46;9.40;99.90
71155;DHT22;59375;53.216;5.728;2022-12-20T14:02:20;9.40;99.90
71155;DHT22;59375;53.216;5.728;2022-12-20T14:04:49;9.40;99.90
71155;DHT22;59375;53.216;5.728;2022-12-20T14:07:17;9.40;99.90
71155;DHT22;59375;53.216;5.728;2022-12-20T14:09:43;9.40;99.90
71155;DHT22;59375;53.216;5.728;2022-12-20T14:12:14;9.40;99.90
71155;DHT22;59375;53.216;5.728;2022-12-20T14:14:44;9.40;99.90
71155;DHT22;59375;53.216;5.728;2022-12-20T14:17:25;9.40;99.90
71155;DHT22;59375;53.216;5.728;2022-12-20T14:22:36;9.30;99.90
71155;DHT22;59375;53.216;5.728;2022-12-20T14:25:02;9.30;99.90
71155;DHT22;59375;53.216;5.728;2022-12-20T14:27:32;9.30;99.90
71155;DHT22;59375;53.216;5.728;2022-12-20T14:29:58;9.30;99.90
71155;DHT22;59375;53.216;5.728;2022-12-20T14:32:24;9.30;99.90
71155;DHT22;59375;53.216;5.728;2022-12-20T14:34:50;9.30;99.90
71155;DHT22;59375;53.216;5.728;2022-12-20T14:39:55;9.30;99.90
71155;DHT22;59375;53.216;5.728;2022-12-20T14:42:21;9.20;99.90
71155;DHT22;59375;53.216;5.728;2022-12-20T14:44:46;9.30;99.90
71155;DHT22;59375;53.216;5.728;2022-12-20T14:47:15;9.20;99.90
71155;DHT22;59375;53.216;5.728;2022-12-20T14:49:47;9.20;99.90
71155;DHT22;59375;53.216;5.728;2022-12-20T14:52:14;9.20;99.90
71155;DHT22;59375;53.216;5.728;2022-12-20T15:02:36;9.20;99.90
71155;DHT22;59375;53.216;5.728;2022-12-20T15:05:46;9.10;99.90
71155;DHT22;59375;53.216;5.728;2022-12-20T15:07:51;9.10;99.90
71155;DHT22;59375;53.216;5.728;2022-12-20T15:10:17;9.10;99.90
71155;DHT22;59375;53.216;5.728;2022-12-20T15:12:43;9.10;99.90
71155;DHT22;59375;53.216;5.728;2022-12-20T15:15:11;9.10;99.90
71155;DHT22;59375;53.216;5.728;2022-12-20T15:17:38;9.10;99.90
71155;DHT22;59375;53.216;5.728;2022-12-20T15:20:03;9.10;99.90
71155;DHT22;59375;53.216;5.728;2022-12-20T15:22:29;9.10;99.90
71155;DHT22;59375;53.216;5.728;2022-12-20T15:24:54;9.00;99.90
71155;DHT22;59375;53.216;5.728;2022-12-20T15:27:19;9.00;99.90
71155;DHT22;59375;53.216;5.728;2022-12-20T15:29:45;9.00;99.90
71155;DHT22;59375;53.216;5.728;2022-12-20T15:32:21;9.00;99.90
71155;DHT22;59375;53.216;5.728;2022-12-20T15:34:47;9.00;99.90
71155;DHT22;59375;53.216;5.728;2022-12-20T15:37:13;9.00;99.90
71155;DHT22;59375;53.216;5.728;2022-12-20T15:39:39;9.00;99.90
71155;DHT22;59375;53.216;5.728;2022-12-20T15:42:05;8.90;99.90
71155;DHT22;59375;53.216;5.728;2022-12-20T15:44:30;8.90;99.90
71155;DHT22;59375;53.216;5.728;2022-12-20T15:46:57;8.90;99.90
71155;DHT22;59375;53.216;5.728;2022-12-20T15:49:26;8.90;99.90
71155;DHT22;59375;53.216;5.728;2022-12-20T15:51:53;8.90;99.90
71155;DHT22;59375;53.216;5.728;2022-12-20T15:56:48;8.90;99.90
71155;DHT22;59375;53.216;5.728;2022-12-20T15:59:14;8.90;99.90
71155;DHT22;59375;53.216;5.728;2022-12-20T16:01:39;8.90;99.90
71155;DHT22;59375;53.216;5.728;2022-12-20T16:04:05;8.90;99.90
71155;DHT22;59375;53.216;5.728;2022-12-20T16:06:32;8.90;99.90
71155;DHT22;59375;53.216;5.728;2022-12-20T16:08:57;8.90;99.90
71155;DHT22;59375;53.216;5.728;2022-12-20T16:11:25;8.90;99.90
71155;DHT22;59375;53.216;5.728;2022-12-20T16:13:52;8.90;99.90
71155;DHT22;59375;53.216;5.728;2022-12-20T16:16:19;8.90;99.90
71155;DHT22;59375;53.216;5.728;2022-12-20T16:18:45;8.90;99.90
71155;DHT22;59375;53.216;5.728;2022-12-20T16:21:15;9.00;99.90
71155;DHT22;59375;53.216;5.728;2022-12-20T16:23:41;8.90;99.90
71155;DHT22;59375;53.216;5.728;2022-12-20T16:26:10;8.90;99.90
71155;DHT22;59375;53.216;5.728;2022-12-20T16:28:36;8.90;99.90
71155;DHT22;59375;53.216;5.728;2022-12-20T16:31:08;8.90;99.90
71155;DHT22;59375;53.216;5.728;2022-12-20T16:33:34;8.90;99.90
71155;DHT22;59375;53.216;5.728;2022-12-20T16:35:59;8.90;99.90
71155;DHT22;59375;53.216;5.728;2022-12-20T16:38:26;8.90;99.90
71155;DHT22;59375;53.216;5.728;2022-12-20T16:40:51;8.90;99.90
71155;DHT22;59375;53.216;5.728;2022-12-20T16:43:16;8.90;99.90
71155;DHT22;59375;53.216;5.728;2022-12-20T16:45:42;8.90;99.90
71155;DHT22;59375;53.216;5.728;2022-12-20T16:48:08;9.00;99.90
71155;DHT22;59375;53.216;5.728;2022-12-20T16:50:33;8.90;99.90
71155;DHT22;59375;53.216;5.728;2022-12-20T16:53:05;8.90;99.90
71155;DHT22;59375;53.216;5.728;2022-12-20T16:55:31;8.90;99.90
71155;DHT22;59375;53.216;5.728;2022-12-20T16:57:56;8.90;99.90
71155;DHT22;59375;53.216;5.728;2022-12-20T17:00:23;8.90;99.90
71155;DHT22;59375;53.216;5.728;2022-12-20T17:02:49;8.90;99.90
71155;DHT22;59375;53.216;5.728;2022-12-20T17:05:23;8.90;99.90
71155;DHT22;59375;53.216;5.728;2022-12-20T17:07:49;8.90;99.90
71155;DHT22;59375;53.216;5.728;2022-12-20T17:10:14;8.90;99.90
71155;DHT22;59375;53.216;5.728;2022-12-20T17:12:41;8.90;99.90
71155;DHT22;59375;53.216;5.728;2022-12-20T17:15:11;8.90;99.90
71155;DHT22;59375;53.216;5.728;2022-12-20T17:17:39;8.90;99.90
71155;DHT22;59375;53.216;5.728;2022-12-20T17:20:04;8.90;99.90
71155;DHT22;59375;53.216;5.728;2022-12-20T17:22:30;8.90;99.90
71155;DHT22;59375;53.216;5.728;2022-12-20T17:24:55;8.90;99.90
71155;DHT22;59375;53.216;5.728;2022-12-20T17:27:21;8.90;99.90
71155;DHT22;59375;53.216;5.728;2022-12-20T17:29:46;8.90;99.90
71155;DHT22;59375;53.216;5.728;2022-12-20T17:32:16;8.90;99.90
71155;DHT22;59375;53.216;5.728;2022-12-20T17:34:42;8.90;99.90
71155;DHT22;59375;53.216;5.728;2022-12-20T17:37:08;8.90;99.90
71155;DHT22;59375;53.216;5.728;2022-12-20T17:39:34;8.90;99.90